Tiempo atmosférico en la estación meteorológica de Alconchel, Badajoz (170 m.)



Fecha
DESCASC
Temp. máxima en grados centígrados (hora)
DESCASC
Temp. mínima en grados centígrados (hora)
DESCASC
Temp. media en grados centígrados
DESCASC
Racha de viento máxima en m/sg (hora)
DESCASC
Velocidad máxima media en intervalos de 10 minutos(hora)
DESCASC
Precipitaciones diarias en mm
DESCASC
Precipitaciones de 00:00 a 06:00 en mm
DESCASC
Precipitaciones de 06:00 a 12:00 en mm
DESCASC
Precipitaciones de 12:00 a 18:00 en mm
DESCASC
Precipitaciones de 18:00 a 24:00 en mm
DESCASC
25-04-2019 17.3 (18:20) 10.3 (23:59) 13.8 12.22 (11:20) 8.61 (16:30) 1 0 1 0 0
24-04-2019 18.3 (17:10) 9 (02:40) 13.6 17.22 (16:50) 11.67 (16:50) 5.4 0.2 0.2 2.4 2.6
23-04-2019 14.8 (16:00) 7.3 (19:50) 11.1 16.11 (11:30) 9.17 (15:20) 6.8 2.8 1 0 3
22-04-2019 22.5 (16:20) 11 (00:00) 16.8 12.22 (21:10) 8.06 (21:10) 0 0 0 0 0
21-04-2019 21.8 (18:10) 8.7 (00:00) 15.2 11.39 (14:10) 6.67 (11:40) 0 0 0 0 0
20-04-2019 21 (17:40) 9.5 (00:00) 15.3 16.11 (13:40) 9.72 (15:40) 0.6 0.4 0 0.2 0
19-04-2019 19.7 (18:20) 9.8 (00:00) 14.8 10 (20:00) 5 (19:10) 4.2 0 0 0 4.2
18-04-2019 17.8 (15:10) 10.9 (00:00) 14.3 10 (15:50) 5.56 (19:20) 1.4 0 0 1.4 0
17-04-2019 19.2 (13:30) 11 (00:00) 15.1 15.56 (14:10) 10.83 (13:00) 2.2 0 0 1.2 1
16-04-2019 24.6 (17:50) 6.7 (00:00) 15.7 10 (17:20) 5.83 (17:40) 0 0 0 0 0
15-04-2019 20.7 (18:00) 12.4 (00:00) 16.6 11.39 (14:20) 7.5 (14:20) 0 0 0 0 0
14-04-2019 24.7 (18:30) 13.3 (00:00) 19 5.56 (16:10) 4.17 (16:30) 0 0 0 0 0
13-04-2019 23 (17:20) 8.7 (00:00) 15.8 7.78 (20:20) 5.28 (20:50) 0 0 0 0 0
12-04-2019 21.5 (19:40) 6.1 (00:00) 13.8 7.5 (16:00) 4.17 (16:00) 0 0 0 0 0
11-04-2019 20.2 (17:20) 6.3 (00:00) 13.3 7.78 (16:30) 4.44 (18:00) 0 0 0 0 0
10-04-2019 18.8 (18:30) 7 (00:00) 12.9 12.22 (13:40) 8.06 (15:40) 0 0 0 0 0
09-04-2019 17.3 (18:00) 9.6 (00:00) 13.4 16.67 (14:10) 8.61 (14:10) 1.4 0 0.2 1.2 0
08-04-2019 18.5 (17:30) 10.8 (00:00) 14.7 11.94 (18:50) 8.61 (18:40) 2 2 0 0 0
07-04-2019 14.6 (20:20) 9.8 (00:00) 12.2 8.61 (18:20) 5.83 (11:50) 2 0 0.2 0.8 1
06-04-2019 15 (14:30) 8.1 (00:00) 11.6 15.28 (14:50) 9.72 (14:50) 0.4 0 0 0.4 0
05-04-2019 13.4 (16:00) 5.4 (00:00) 9.4 16.94 (16:30) 11.11 (18:10) 8.4 5.2 2.4 0.4 0.4
04-04-2019 17.4 (17:20) 3.1 (00:00) 10.2 11.11 (21:20) 7.78 (20:10) 0.2 0 0 0 0.2
03-04-2019 18.3 (17:00) 6.2 (00:00) 12.2 10.83 (23:20) 6.67 (23:20) 0 0 0 0 0
02-04-2019 21.1 (17:50) 9.3 (00:00) 15.2 5 (23:59) 3.61 (18:00) 0 0 0 0 0
01-04-2019 21.3 (16:20) 11.6 (00:00) 16.4 10 (17:10) 6.67 (17:20) 2.6 1.2 0.2 0.2 1
31-03-2019 22 (16:40) 9.4 (00:00) 15.7 11.39 (18:10) 8.61 (18:10) 1.2 0 0 0 1.2
30-03-2019 22.9 (16:30) 10.9 (00:00) 16.9 10 (13:40) 5.83 (20:00) 0 0 0 0 0
29-03-2019 22 (16:10) 4.9 (00:00) 13.5 6.67 (15:20) 5 (15:30) 0 0 0 0 0
28-03-2019 22.7 (16:40) 5.2 (00:00) 14 10 (13:30) 5.83 (13:00) 0 0 0 0 0
27-03-2019 22.2 (16:30) 7.7 (00:00) 15 12.5 (15:40) 7.22 (15:30) 0 0 0 0 0

Gráficas

Temp. máximas Temp. mínimas Temp. medias Precipitaciones Rachas de viento máximas Velocidades máximas media en intervalos de 10 minutos

Datos horarios

Fecha y hora oficial Temperatura (ºC) Velocidad del viento (km/h) Dirección del viento Racha (km/h) Dirección de racha Precipitación (mm) Presión (hPa) Tendencia (hPa) Humedad (%)
2019-04-25 23:00:00 11.3 9 Noroeste 14 Oeste 0 -- -- 75
2019-04-25 22:00:00 12.8 12 Noroeste 27 Noroeste 0 -- -- 67
2019-04-25 21:00:00 14.4 16 Noroeste 40 Noroeste 0 -- -- 55
2019-04-25 20:00:00 16.2 25 Noroeste 41 Noroeste 0 -- -- 53
2019-04-25 19:00:00 15.9 27 Noroeste 43 Oeste 0 -- -- 53
2019-04-25 18:00:00 16.9 22 Oeste 41 Oeste 0 -- -- 56
2019-04-25 17:00:00 15.6 26 Oeste 43 Noroeste 0 -- -- 58
2019-04-25 16:00:00 15.7 26 Noroeste 43 Noroeste 0 -- -- 62
2019-04-25 15:00:00 16.2 23 Oeste 42 Oeste 0 -- -- 65
2019-04-25 14:00:00 15.4 26 Oeste 41 Oeste 0 -- -- 58
2019-04-25 13:00:00 15.3 21 Oeste 42 Oeste 0 -- -- 61
2019-04-25 12:00:00 13.1 13 Oeste 44 Oeste 1 -- -- 84
2019-04-25 11:00:00 13 19 Oeste 28 Oeste 0 -- -- 74
2019-04-25 10:00:00 12.1 16 Oeste 23 Oeste 0 -- -- 81
2019-04-25 09:00:00 11.8 17 Oeste 25 Oeste 0 -- -- 84
2019-04-25 08:00:00 11.1 16 Oeste 27 Oeste 0 -- -- 86
2019-04-25 07:00:00 11.5 18 Oeste 29 Oeste 0 -- -- 87
2019-04-25 06:00:00 11.9 19 Oeste 29 Sudoeste 0 -- -- 87
2019-04-25 05:00:00 12.1 17 Oeste 25 Oeste 0 -- -- 86
2019-04-25 04:00:00 12.5 16 Oeste 29 Oeste 0 -- -- 87
2019-04-25 03:00:00 12.5 15 Sudoeste 27 Sudoeste 0 -- -- 92
2019-04-25 02:00:00 12.6 20 Sudoeste 28 Sudoeste 0 -- -- 90
2019-04-25 01:00:00 12.3 18 Oeste 28 Oeste 0 -- -- 89
2019-04-25 00:00:00 12.4 15 Oeste 34 Oeste 0 -- -- 91
2019-04-24 23:00:00 13 25 Oeste 50 Sudoeste 1.2 -- -- 93
2019-04-24 22:00:00 14 30 Sudoeste 42 Sudoeste 1.4 -- -- 96
2019-04-24 21:00:00 14.7 30 Sudoeste 55 Sudoeste 0 -- -- 88
2019-04-24 20:00:00 14.1 21 Oeste 59 Oeste 0 -- -- 86
2019-04-24 19:00:00 17.1 35 Sudoeste 53 Sudoeste 0 -- -- 63
2019-04-24 18:00:00 17.5 30 Oeste 60 Oeste 0 -- -- 64
2019-04-24 17:00:00 17.5 41 Sudoeste 62 Sudoeste 0 -- -- 72
2019-04-24 16:00:00 16.6 35 Sudoeste 54 Sudoeste 0 -- -- 85
2019-04-24 15:00:00 15.7 35 Sudoeste 57 Sudoeste 2.2 -- -- 88
2019-04-24 14:00:00 16.2 37 Sudoeste 54 Sudoeste 0 -- -- 83
2019-04-24 13:00:00 15 32 Sudoeste 46 Sudoeste 0.2 -- -- 92
2019-04-24 12:00:00 14.2 34 Sudoeste 51 Sudoeste 0.2 -- -- 93
2019-04-24 11:00:00 12.7 34 Sudoeste 50 Sudoeste 0 -- -- 94
2019-04-24 10:00:00 11.8 33 Sudoeste 56 Sudoeste 0 -- -- 94
2019-04-24 09:00:00 11.4 37 Sudoeste 61 Sudoeste 0 -- -- 91
2019-04-24 08:00:00 11.6 37 Sudoeste 52 Sudoeste 0 -- -- 84
2019-04-24 07:00:00 11.2 32 Sudoeste 51 Sudoeste 0 -- -- 83
2019-04-24 06:00:00 10.8 30 Sudoeste 45 Sudoeste 0 -- -- 84
2019-04-24 05:00:00 10.5 29 Sudoeste 38 Sur 0.2 -- -- 85
2019-04-24 04:00:00 9.7 18 Sudoeste 27 Sur 0 -- -- 90
2019-04-24 03:00:00 9.3 15 Sur 24 Sur 0 -- -- 91
2019-04-24 02:00:00 9.1 13 Sur 23 Sudoeste 0 -- -- 89
2019-04-24 01:00:00 9.7 13 Sudoeste 29 Sudoeste 0 -- -- 84
2019-04-24 00:00:00 10 16 Oeste 26 Oeste 0 -- -- 78
2019-04-23 23:00:00 10 16 Oeste 32 Oeste 0 -- -- 75
2019-04-23 22:00:00 8 7 Sudeste 12 Sudeste 0 -- -- 91
2019-04-23 21:00:00 7.9 5 Este 9 Sudeste 0.2 -- -- 90
2019-04-23 20:00:00 7.7 3 Sudeste 39 Noroeste 2.8 -- -- 81
2019-04-23 19:00:00 11.5 16 Sudoeste 36 Oeste 0 -- -- 67
2019-04-23 18:00:00 11.4 31 Oeste 51 Oeste 0 -- -- 67
2019-04-23 17:00:00 14.6 27 Noroeste 46 Oeste 0 -- -- 47
2019-04-23 16:00:00 14.8 25 Oeste 50 Oeste 0 -- -- 51
2019-04-23 15:00:00 12.9 31 Oeste 50 Noroeste 0 -- -- 69
2019-04-23 14:00:00 12.4 28 Noroeste 42 Oeste 0 -- -- 62
2019-04-23 13:00:00 10.4 30 Noroeste 45 Noroeste 0 -- -- 74
2019-04-23 12:00:00 8.6 17 Noroeste 58 Noroeste 1 -- -- 87
2019-04-23 11:00:00 11.1 22 Oeste 37 Oeste 0 -- -- 75
2019-04-23 10:00:00 9.7 18 Oeste 31 Oeste 0 -- -- 84
2019-04-23 09:00:00 8.8 12 Oeste 34 Noroeste 0 -- -- 87
2019-04-23 08:00:00 8.7 16 Oeste 28 Oeste 0 -- -- 89
2019-04-23 07:00:00 9.1 13 Oeste 24 Oeste 0 -- -- 91
2019-04-23 06:00:00 9.6 13 Oeste 24 Oeste 0 -- -- 90
2019-04-23 05:00:00 9.9 15 Oeste 25 Oeste 0 -- -- 92
2019-04-23 04:00:00 10 15 Oeste 32 Oeste 1.2 -- -- 93
2019-04-23 03:00:00 10.4 17 Oeste 25 Oeste 0.8 -- -- 92
2019-04-23 02:00:00 11.5 23 Noroeste 45 Noroeste 0.8 -- -- 90
2019-04-23 01:00:00 13.9 24 Sudoeste 38 Sudoeste 0 -- -- 79
2019-04-23 00:00:00 14 25 Sudoeste 41 Sudoeste 0 -- -- 80
2019-04-22 23:00:00 14.6 17 Oeste 35 Sudoeste 0 -- -- 76
2019-04-22 22:00:00 15.1 20 Oeste 44 Oeste 0 -- -- 73
2019-04-22 21:00:00 16.8 27 Oeste 37 Oeste 0 -- -- 70
2019-04-22 20:00:00 18.6 21 Oeste 38 Oeste 0 -- -- 55
2019-04-22 19:00:00 20.3 23 Oeste 39 Oeste 0 -- -- 44
2019-04-22 18:00:00 20.9 19 Oeste 34 Oeste 0 -- -- 49
2019-04-22 17:00:00 21.8 21 Oeste 35 Oeste 0 -- -- 38
2019-04-22 16:00:00 21.8 19 Oeste 34 Oeste 0 -- -- 42
2019-04-22 15:00:00 22.1 19 Noroeste 33 Oeste 0 -- -- 44
2019-04-22 14:00:00 20.5 14 Oeste 24 Oeste 0 -- -- 57
2019-04-22 13:00:00 19.5 8 Oeste 20 Oeste 0 -- -- 61
2019-04-22 12:00:00 17.8 12 Sudoeste 18 Sudoeste 0 -- -- 63
2019-04-22 11:00:00 15.9 8 Sudoeste 12 Sudoeste 0 -- -- 69
2019-04-22 10:00:00 13.5 8 Sudoeste 11 Sudoeste 0 -- -- 81
2019-04-22 09:00:00 11.8 5 Sudeste 9 Sur 0 -- -- 85
2019-04-22 08:00:00 11 2 Sudoeste 9 Sur 0 -- -- 85
2019-04-22 07:00:00 11.8 5 Sur 9 Sur 0 -- -- 82
2019-04-22 06:00:00 12.5 3 Sur 5 Sur 0 -- -- 77
2019-04-22 05:00:00 12.8 0 Calma 9 Sudeste 0 -- -- 74
2019-04-22 04:00:00 13 5 Sudeste 13 Este 0 -- -- 72
2019-04-22 03:00:00 12.7 10 Sudeste 13 Sudeste 0 -- -- 73
2019-04-22 02:00:00 12.8 0 Calma 3 Sudoeste 0 -- -- 75
2019-04-22 01:00:00 13.2 0 Calma 7 Sudeste 0 -- -- 69
2019-04-22 00:00:00 15.1 0 Calma 6 Sudeste 0 -- -- 60
2019-04-21 23:00:00 15.6 3 Sudeste 15 Este 0 -- -- 58
2019-04-21 22:00:00 17.3 9 Este 14 Este 0 -- -- 50
2019-04-21 21:00:00 19.6 8 Este 19 Nordeste 0 -- -- 44
2019-04-21 20:00:00 20.2 9 Nordeste 26 Este 0 -- -- 42
2019-04-21 19:00:00 20.7 14 Nordeste 38 Nordeste 0 -- -- 41
2019-04-21 18:00:00 21.4 13 Norte 32 Nordeste 0 -- -- 39
2019-04-21 17:00:00 21.4 14 Este 32 Nordeste 0 -- -- 41
2019-04-21 16:00:00 21.7 19 Nordeste 35 Este 0 -- -- 38
2019-04-21 15:00:00 20.6 22 Nordeste 41 Norte 0 -- -- 41
2019-04-21 14:00:00 20 20 Nordeste 37 Nordeste 0 -- -- 43
2019-04-21 13:00:00 18.9 19 Nordeste 32 Este 0 -- -- 47
2019-04-21 12:00:00 17.9 16 Este 36 Este 0 -- -- 50
2019-04-21 11:00:00 16.2 17 Nordeste 34 Este 0 -- -- 55
2019-04-21 10:00:00 14.6 13 Nordeste 22 Nordeste 0 -- -- 61
2019-04-21 09:00:00 11.3 9 Nordeste 18 Nordeste 0 -- -- 78
2019-04-21 08:00:00 8.7 9 Nordeste 23 Nordeste 0 -- -- 88
2019-04-21 07:00:00 9.8 13 Nordeste 20 Nordeste 0 -- -- 84
2019-04-21 06:00:00 10.5 12 Nordeste 22 Nordeste 0 -- -- 80
2019-04-21 05:00:00 11.1 13 Nordeste 21 Nordeste 0 -- -- 74
2019-04-21 04:00:00 12.2 8 Nordeste 16 Nordeste 0 -- -- 68
2019-04-21 03:00:00 11.5 9 Nordeste 14 Este 0 -- -- 72
2019-04-21 02:00:00 13.1 4 Este 23 Este 0 -- -- 64
2019-04-21 01:00:00 14.2 14 Este 34 Sudeste 0 -- -- 60
2019-04-21 00:00:00 14.3 13 Este 26 Este 0 -- -- 61
2019-04-20 23:00:00 15.4 8 Este 41 Este 0 -- -- 58
2019-04-20 22:00:00 16.9 18 Este 37 Este 0 -- -- 55
2019-04-20 21:00:00 18.2 17 Este 32 Este 0 -- -- 52
2019-04-20 20:00:00 19.2 19 Este 37 Este 0 -- -- 51
2019-04-20 19:00:00 20.4 27 Este 51 Este 0 -- -- 47
2019-04-20 18:00:00 20.7 27 Este 54 Este 0 -- -- 48
2019-04-20 17:00:00 20.4 28 Este 56 Este 0 -- -- 50
2019-04-20 16:00:00 19.9 35 Este 57 Este 0 -- -- 53
2019-04-20 15:00:00 18.7 27 Este 56 Este 0 -- -- 55
2019-04-20 14:00:00 19 28 Este 58 Este 0 -- -- 54
2019-04-20 13:00:00 17.1 24 Nordeste 37 Norte 0.2 -- -- 67
2019-04-20 12:00:00 14.8 16 Nordeste 29 Nordeste 0 -- -- 80
2019-04-20 11:00:00 12.6 13 Nordeste 25 Nordeste 0 -- -- 89
2019-04-20 10:00:00 10.9 10 Nordeste 21 Nordeste 0 -- -- 94
2019-04-20 09:00:00 10.2 15 Nordeste 23 Norte 0 -- -- 95
2019-04-20 08:00:00 9.6 13 Nordeste 21 Nordeste 0 -- -- 94
2019-04-20 07:00:00 9.9 8 Nordeste 17 Nordeste 0 -- -- 92
2019-04-20 06:00:00 9.9 12 Nordeste 20 Nordeste 0 -- -- 94
2019-04-20 05:00:00 10.2 13 Nordeste 23 Nordeste 0 -- -- 95
2019-04-20 04:00:00 10.5 6 Nordeste 14 Nordeste 0 -- -- 96
2019-04-20 03:00:00 11 12 Nordeste 21 Nordeste 0 -- -- 96
2019-04-20 02:00:00 11.8 15 Nordeste 22 Norte 0.2 -- -- 97
2019-04-20 01:00:00 11.8 11 Nordeste 18 Nordeste 0.2 -- -- 96
2019-04-20 00:00:00 11.7 9 Nordeste 21 Nordeste 0.2 -- -- 94
2019-04-19 23:00:00 11.7 10 Norte 15 Nordeste 0.6 -- -- 96
2019-04-19 22:00:00 11.9 0 Calma 11 Sudoeste 0 -- -- 93
2019-04-19 21:00:00 12.4 6 Sur 23 Este 3.2 -- -- 90
2019-04-19 20:00:00 14.6 18 Este 36 Este 0.2 -- -- 75
2019-04-19 19:00:00 17.4 15 Sudoeste 23 Oeste 0 -- -- 67
2019-04-19 18:00:00 19.1 9 Noroeste 20 Noroeste 0 -- -- 54
2019-04-19 17:00:00 17.1 9 Este 20 Este 0 -- -- 62
2019-04-19 16:00:00 16.8 15 Sudeste 24 Este 0 -- -- 61
2019-04-19 15:00:00 17.3 10 Noroeste 22 Norte 0 -- -- 65
2019-04-19 14:00:00 16.2 10 Noroeste 21 Noroeste 0 -- -- 71
2019-04-19 13:00:00 14.6 6 Norte 11 Nordeste 0 -- -- 78
2019-04-19 12:00:00 12.7 0 Calma 6 Este 0 -- -- 88
2019-04-19 11:00:00 11.9 2 Noroeste 9 Sudoeste 0 -- -- 91
2019-04-19 10:00:00 11 4 Sur 12 Sur 0 -- -- 94
2019-04-19 09:00:00 10.5 6 Sur 10 Sur 0 -- -- 96
2019-04-19 08:00:00 9.9 8 Sudoeste 13 Sudoeste 0 -- -- 96
2019-04-19 07:00:00 10 4 Sudeste 8 Sudoeste 0 -- -- 94
2019-04-19 06:00:00 10.1 0 Calma 5 Sur 0 -- -- 93
2019-04-19 05:00:00 9.9 2 Noroeste 6 Noroeste 0 -- -- 92
2019-04-19 04:00:00 10.2 5 Noroeste 8 Oeste 0 -- -- 91
2019-04-19 03:00:00 10.7 5 Sur 9 Sudoeste 0 -- -- 92
2019-04-19 02:00:00 11 7 Sudoeste 11 Oeste 0 -- -- 89
2019-04-19 01:00:00 11.7 4 Sur 12 Sudoeste 0 -- -- 86
2019-04-19 00:00:00 11.5 4 Noroeste 9 Oeste 0 -- -- 86
2019-04-18 23:00:00 12.5 8 Oeste 17 Oeste 0 -- -- 81
2019-04-18 22:00:00 13.3 12 Oeste 18 Sudoeste 0 -- -- 78
2019-04-18 21:00:00 14.2 9 Noroeste 30 Noroeste 0 -- -- 68
2019-04-18 20:00:00 16.2 19 Noroeste 31 Oeste 0 -- -- 58
2019-04-18 19:00:00 16.4 17 Oeste 27 Oeste 0 -- -- 66
2019-04-18 18:00:00 15.5 11 Noroeste 21 Noroeste 0 -- -- 72
2019-04-18 17:00:00 14.9 5 Noroeste 31 Noroeste 0.6 -- -- 80
2019-04-18 16:00:00 16.9 8 Noroeste 36 Oeste 0 -- -- 62
2019-04-18 15:00:00 17.7 6 Oeste 13 Oeste 0 -- -- 59
2019-04-18 14:00:00 16.5 3 Sudoeste 9 Oeste 0.2 -- -- 67
2019-04-18 13:00:00 15.2 11 Noroeste 17 Noroeste 0.6 -- -- 75
2019-04-18 12:00:00 15.7 4 Oeste 11 Oeste 0 -- -- 71
2019-04-18 11:00:00 13.7 6 Oeste 12 Noroeste 0 -- -- 83
2019-04-18 10:00:00 12.5 9 Noroeste 13 Noroeste 0 -- -- 90
2019-04-18 09:00:00 11.6 3 Sudoeste 12 Sudoeste 0 -- -- 95
2019-04-18 08:00:00 11.4 4 Sur 9 Sur 0 -- -- 94
2019-04-18 07:00:00 11.4 7 Sur 12 Sur 0 -- -- 93
2019-04-18 06:00:00 10.9 6 Sur 16 Sur 0 -- -- 93
2019-04-18 05:00:00 11.1 12 Sur 19 Sur 0 -- -- 92
2019-04-18 04:00:00 11.4 10 Sur 16 Sudeste 0 -- -- 91
2019-04-18 03:00:00 11.5 9 Sudeste 17 Sudeste 0 -- -- 91
2019-04-18 02:00:00 11.2 12 Sur 21 Sur 0 -- -- 92
2019-04-18 01:00:00 11.2 13 Sur 24 Sur 0 -- -- 92
2019-04-18 00:00:00 11.5 13 Sur 22 Sur 0 -- -- 93
2019-04-17 23:00:00 11.8 17 Sur 27 Sur 0 -- -- 90
2019-04-17 22:00:00 12.1 21 Sudoeste 31 Sudoeste 0 -- -- 91
2019-04-17 21:00:00 12.4 19 Sudoeste 28 Sur 0.2 -- -- 88
2019-04-17 20:00:00 12.7 20 Sur 30 Sur 0 -- -- 87
2019-04-17 19:00:00 13 17 Sur 29 Sur 0.8 -- -- 87
2019-04-17 18:00:00 13.7 17 Sur 23 Sur 0.8 -- -- 86
2019-04-17 17:00:00 13.7 12 Sudoeste 30 Oeste 0 -- -- 85
2019-04-17 16:00:00 13.4 21 Oeste 33 Oeste 0.2 -- -- 86
2019-04-17 15:00:00 13.8 18 Oeste 56 Sudoeste 0.2 -- -- 83
2019-04-17 14:00:00 18.8 37 Sur 52 Sur 0 -- -- 65
2019-04-17 13:00:00 18.9 39 Sur 53 Sur 0 -- -- 65
2019-04-17 12:00:00 17.7 37 Sur 51 Sur 0 -- -- 70
2019-04-17 11:00:00 16.3 30 Sur 43 Sur 0 -- -- 72
2019-04-17 10:00:00 15 21 Sur 32 Sur 0 -- -- 75
2019-04-17 09:00:00 14.5 21 Sur 31 Sur 0 -- -- 76
2019-04-17 08:00:00 13.4 13 Sur 21 Sur 0 -- -- 76
2019-04-17 07:00:00 11.8 10 Este 15 Este 0 -- -- 76
2019-04-17 06:00:00 11 6 Este 11 Este 0 -- -- 77
2019-04-17 05:00:00 11.7 9 Sur 16 Sur 0 -- -- 74
2019-04-17 04:00:00 11.5 12 Sur 15 Sur 0 -- -- 73
2019-04-17 03:00:00 12.2 8 Sur 13 Oeste 0 -- -- 81
2019-04-17 02:00:00 13.1 2 Oeste 19 Sudoeste 0 -- -- 78
2019-04-17 01:00:00 15 12 Sudoeste 24 Sudoeste 0 -- -- 58
2019-04-17 00:00:00 16.2 17 Sur 30 Sudoeste 0 -- -- 51
2019-04-16 23:00:00 17.6 19 Sudoeste 28 Sudoeste 0 -- -- 44
2019-04-16 22:00:00 18.5 13 Sudoeste 24 Sudoeste 0 -- -- 42
2019-04-16 21:00:00 19.9 14 Sudoeste 26 Sudoeste 0 -- -- 41
2019-04-16 20:00:00 21.4 17 Sudoeste 27 Sudoeste 0 -- -- 35
2019-04-16 19:00:00 23.3 19 Sudoeste 29 Sur 0 -- -- 36
2019-04-16 18:00:00 24.6 20 Sur 36 Sur 0 -- -- 30
2019-04-16 17:00:00 23.8 13 Sudoeste 23 Sudoeste 0 -- -- 35
2019-04-16 16:00:00 23.2 12 Sudoeste 23 Sur 0 -- -- 37
2019-04-16 15:00:00 21.9 12 Oeste 20 Sudoeste 0 -- -- 42
2019-04-16 14:00:00 20.1 8 Noroeste 17 Oeste 0 -- -- 50
2019-04-16 13:00:00 18.8 10 Oeste 17 Sur 0 -- -- 57
2019-04-16 12:00:00 17.3 6 Sur 15 Sur 0 -- -- 64
2019-04-16 11:00:00 14.2 9 Sudoeste 16 Sur 0 -- -- 83
2019-04-16 10:00:00 10.9 0 Calma 4 Noroeste 0 -- -- 93
2019-04-16 09:00:00 8.2 2 Norte 4 Norte 0 -- -- 97
2019-04-16 08:00:00 6.9 2 Sudeste 5 Este 0 -- -- 96
2019-04-16 07:00:00 7.3 4 Sudeste 13 Este 0 -- -- 94
2019-04-16 06:00:00 8.7 2 Nordeste 5 Este 0 -- -- 95
2019-04-16 05:00:00 9 5 Sudeste 9 Este 0 -- -- 92
2019-04-16 04:00:00 9.6 4 Norte 10 Nordeste 0 -- -- 92
2019-04-16 03:00:00 10.2 6 Este 9 Este 0 -- -- 89
2019-04-16 02:00:00 11.2 3 Este 11 Noroeste 0 -- -- 86
2019-04-16 01:00:00 12.1 4 Noroeste 12 Noroeste 0 -- -- 85
2019-04-16 00:00:00 13.2 8 Noroeste 19 Oeste 0 -- -- 83
2019-04-15 23:00:00 14.8 14 Oeste 30 Oeste 0 -- -- 77
2019-04-15 22:00:00 16 14 Oeste 30 Oeste 0 -- -- 71
2019-04-15 21:00:00 17.5 18 Oeste 30 Oeste 0 -- -- 61
2019-04-15 20:00:00 19.3 20 Oeste 35 Oeste 0 -- -- 51
2019-04-15 19:00:00 20.4 22 Oeste 39 Oeste 0 -- -- 44
2019-04-15 18:00:00 20.7 22 Oeste 35 Oeste 0 -- -- 51
2019-04-15 17:00:00 19.7 18 Noroeste 32 Oeste 0 -- -- 56
2019-04-15 16:00:00 18.6 21 Oeste 32 Oeste 0 -- -- 63
2019-04-15 15:00:00 18.8 18 Noroeste 41 Oeste 0 -- -- 64
2019-04-15 14:00:00 18.9 21 Oeste 40 Oeste 0 -- -- 65
2019-04-15 13:00:00 19.1 23 Oeste 39 Oeste 0 -- -- 58
2019-04-15 12:00:00 18.1 10 Oeste 23 Oeste 0 -- -- 67
2019-04-15 11:00:00 15.8 18 Oeste 28 Noroeste 0 -- -- 76
2019-04-15 10:00:00 14.9 8 Oeste 14 Oeste 0 -- -- 85
2019-04-15 09:00:00 13.1 4 Sur 8 Oeste 0 -- -- 95
2019-04-15 08:00:00 12.7 4 Oeste 7 Oeste 0 -- -- 96
2019-04-15 07:00:00 12.5 0 Calma -- -- 0 -- -- 94
2019-04-15 06:00:00 13.1 0 Calma 4 Sudeste 0 -- -- 94
2019-04-15 05:00:00 13.7 2 Este 5 Sudeste 0 -- -- 93
2019-04-15 04:00:00 14.5 0 Calma 5 Noroeste 0 -- -- 89
2019-04-15 03:00:00 15.2 0 Calma 7 Oeste 0 -- -- 87
2019-04-15 02:00:00 16.2 6 Noroeste 14 Sudoeste 0 -- -- 83
2019-04-15 01:00:00 17.6 10 Sur 13 Sur 0 -- -- 75
2019-04-15 00:00:00 18.4 5 Sudeste 9 Sur 0 -- -- 71
2019-04-14 23:00:00 19.6 7 Sudeste 9 Sudeste 0 -- -- 66
2019-04-14 22:00:00 20.9 4 Sudeste 6 Sudeste 0 -- -- 61
2019-04-14 21:00:00 21.7 5 Sur 10 Sur 0 -- -- 59
2019-04-14 20:00:00 22.6 7 Sudoeste 17 Oeste 0 -- -- 59
2019-04-14 19:00:00 23.7 11 Oeste 19 Oeste 0 -- -- 51
2019-04-14 18:00:00 24.2 4 Noroeste 15 Oeste 0 -- -- 49
2019-04-14 17:00:00 23.4 12 Oeste 20 Sudoeste 0 -- -- 52
2019-04-14 16:00:00 23.3 14 Sudoeste 18 Sudoeste 0 -- -- 57
2019-04-14 15:00:00 23.1 10 Oeste 16 Noroeste 0 -- -- 58
2019-04-14 14:00:00 21.9 10 Noroeste 17 Noroeste 0 -- -- 63
2019-04-14 13:00:00 21 9 Oeste 14 Oeste 0 -- -- 66
2019-04-14 12:00:00 19.4 8 Oeste 13 Oeste 0 -- -- 70
2019-04-14 11:00:00 18 4 Sur 10 Sudoeste 0 -- -- 74
2019-04-14 10:00:00 15.6 4 Sudoeste 6 Oeste 0 -- -- 86
2019-04-14 09:00:00 14.2 4 Sur 9 Sudeste 0 -- -- 91
2019-04-14 08:00:00 13.8 6 Sudeste 8 Sudeste 0 -- -- 91
2019-04-14 07:00:00 13.8 3 Sudoeste 5 Sudoeste 0 -- -- 92
2019-04-14 06:00:00 13.6 3 Sur 8 Sur 0 -- -- 93
2019-04-14 05:00:00 13.3 5 Sudeste 8 Sur 0 -- -- 92
2019-04-14 04:00:00 13.6 5 Sudeste 6 Sudeste 0 -- -- 91
2019-04-14 03:00:00 14.1 4 Oeste 6 Noroeste 0 -- -- 90
2019-04-14 02:00:00 14.5 4 Norte 13 Noroeste 0 -- -- 89
2019-04-14 01:00:00 14.9 9 Noroeste 12 Noroeste 0 -- -- 88
2019-04-14 00:00:00 16 8 Noroeste 14 Noroeste 0 -- -- 83
2019-04-13 23:00:00 17.6 12 Noroeste 26 Noroeste 0 -- -- 74
2019-04-13 22:00:00 18.2 10 Norte 21 Noroeste 0 -- -- 68
2019-04-13 21:00:00 19.1 14 Noroeste 28 Noroeste 0 -- -- 65
2019-04-13 20:00:00 21.6 14 Noroeste 25 Oeste 0 -- -- 53
2019-04-13 19:00:00 22 12 Norte 18 Norte 0 -- -- 40
2019-04-13 18:00:00 22.9 9 Oeste 22 Oeste 0 -- -- 36
2019-04-13 17:00:00 22.3 13 Oeste 18 Oeste 0 -- -- 34
2019-04-13 16:00:00 21.5 12 Sudoeste 18 Sudoeste 0 -- -- 34
2019-04-13 15:00:00 21.1 10 Sudoeste 16 Sudoeste 0 -- -- 39
2019-04-13 14:00:00 19.7 9 Sudoeste 15 Sudoeste 0 -- -- 36
2019-04-13 13:00:00 18.2 10 Oeste 14 Oeste 0 -- -- 47
2019-04-13 12:00:00 16 6 Oeste 13 Sudoeste 0 -- -- 68
2019-04-13 11:00:00 14 8 Sudoeste 14 Oeste 0 -- -- 75
2019-04-13 10:00:00 12.3 6 Sur 10 Sur 0 -- -- 82
2019-04-13 09:00:00 9.6 4 Sudeste 8 Sudeste 0 -- -- 92
2019-04-13 08:00:00 8.7 6 Sudeste 10 Sudeste 0 -- -- 90
2019-04-13 07:00:00 8.8 7 Sudeste 9 Sudeste 0 -- -- 89
2019-04-13 06:00:00 9.1 7 Sudeste 9 Sudeste 0 -- -- 88
2019-04-13 05:00:00 9.3 6 Sudeste 8 Sur 0 -- -- 85
2019-04-13 04:00:00 10.7 4 Sudeste 10 Sudeste 0 -- -- 82
2019-04-13 03:00:00 11 3 Sudeste 6 Sudeste 0 -- -- 80
2019-04-13 02:00:00 11.7 4 Norte 14 Norte 0 -- -- 77
2019-04-13 01:00:00 12.9 8 Norte 22 Noroeste 0 -- -- 74
2019-04-13 00:00:00 13.1 8 Norte 15 Oeste 0 -- -- 68
2019-04-12 23:00:00 14.7 0 Calma 11 Norte 0 -- -- 56
2019-04-12 22:00:00 15.6 8 Norte 12 Norte 0 -- -- 51
2019-04-12 21:00:00 18.8 6 Norte 10 Norte 0 -- -- 38
2019-04-12 20:00:00 20.6 9 Norte 17 Norte 0 -- -- 32
2019-04-12 19:00:00 20.9 10 Nordeste 25 Nordeste 0 -- -- 32
2019-04-12 18:00:00 21.3 12 Norte 26 Nordeste 0 -- -- 32
2019-04-12 17:00:00 21.1 8 Nordeste 22 Nordeste 0 -- -- 31
2019-04-12 16:00:00 20.6 15 Nordeste 27 Nordeste 0 -- -- 34
2019-04-12 15:00:00 20.2 10 Nordeste 26 Nordeste 0 -- -- 32
2019-04-12 14:00:00 18.8 13 Norte 23 Norte 0 -- -- 43
2019-04-12 13:00:00 17.3 8 Norte 19 Nordeste 0 -- -- 54
2019-04-12 12:00:00 14.8 5 Norte 11 Oeste 0 -- -- 64
2019-04-12 11:00:00 11.9 5 Oeste 9 Sudoeste 0 -- -- 81
2019-04-12 10:00:00 9.6 2 Oeste 5 Oeste 0 -- -- 87
2019-04-12 09:00:00 7.9 0 Calma 4 Noroeste 0 -- -- 94
2019-04-12 08:00:00 6.2 4 Este 5 Este 0 -- -- 92
2019-04-12 07:00:00 6.5 0 Calma 9 Este 0 -- -- 91
2019-04-12 06:00:00 7.3 4 Este 5 Este 0 -- -- 89
2019-04-12 05:00:00 8.2 3 Nordeste 4 Nordeste 0 -- -- 85
2019-04-12 04:00:00 8.9 0 Calma 9 Norte 0 -- -- 82
2019-04-12 03:00:00 9.6 7 Norte 9 Norte 0 -- -- 80
2019-04-12 02:00:00 11 6 Norte 11 Noroeste 0 -- -- 75
2019-04-12 01:00:00 12.1 10 Norte 18 Norte 0 -- -- 72
2019-04-12 00:00:00 12.5 12 Norte 17 Norte 0 -- -- 71
2019-04-11 23:00:00 13.9 13 Norte 20 Noroeste 0 -- -- 60
2019-04-11 22:00:00 14.5 9 Norte 14 Norte 0 -- -- 56
2019-04-11 21:00:00 16.5 10 Norte 22 Norte 0 -- -- 49
2019-04-11 20:00:00 18.8 14 Norte 23 Norte 0 -- -- 39
2019-04-11 19:00:00 19.1 12 Norte 22 Noroeste 0 -- -- 36
2019-04-11 18:00:00 20 16 Norte 25 Norte 0 -- -- 36
2019-04-11 17:00:00 19.7 10 Norte 28 Nordeste 0 -- -- 37
2019-04-11 16:00:00 19.7 12 Norte 27 Nordeste 0 -- -- 41
2019-04-11 15:00:00 18.7 9 Nordeste 24 Norte 0 -- -- 48
2019-04-11 14:00:00 18 14 Norte 26 Norte 0 -- -- 51
2019-04-11 13:00:00 16.4 12 Norte 21 Norte 0 -- -- 60
2019-04-11 12:00:00 14.4 9 Norte 17 Norte 0 -- -- 66
2019-04-11 11:00:00 11.8 6 Norte 12 Oeste 0 -- -- 82
2019-04-11 10:00:00 9.4 6 Noroeste 11 Noroeste 0 -- -- 91
2019-04-11 09:00:00 7.4 4 Norte 10 Norte 0 -- -- 97
2019-04-11 08:00:00 6.4 8 Norte 14 Norte 0 -- -- 97
2019-04-11 07:00:00 6.9 4 Norte 9 Norte 0 -- -- 95
2019-04-11 06:00:00 7.2 6 Norte 10 Norte 0 -- -- 94
2019-04-11 05:00:00 7.9 5 Norte 7 Norte 0 -- -- 93
2019-04-11 04:00:00 8.6 4 Norte 8 Norte 0 -- -- 90
2019-04-11 03:00:00 9.1 6 Noroeste 20 Norte 0 -- -- 86
2019-04-11 02:00:00 9.9 11 Norte 23 Norte 0 -- -- 83
2019-04-11 01:00:00 10.7 12 Norte 23 Norte 0 -- -- 78
2019-04-11 00:00:00 11.3 11 Norte 22 Norte 0 -- -- 74
2019-04-10 23:00:00 12.3 9 Noroeste 21 Norte 0 -- -- 69
2019-04-10 22:00:00 14 17 Norte 28 Norte 0 -- -- 59
2019-04-10 21:00:00 15.4 16 Norte 34 Noroeste 0 -- -- 52
2019-04-10 20:00:00 16.7 22 Norte 40 Noroeste 0 -- -- 45
2019-04-10 19:00:00 18.4 23 Noroeste 39 Noroeste 0 -- -- 41
2019-04-10 18:00:00 18.6 23 Noroeste 38 Noroeste 0 -- -- 43
2019-04-10 17:00:00 18.2 23 Norte 40 Noroeste 0 -- -- 43
2019-04-10 16:00:00 17.7 23 Norte 44 Noroeste 0 -- -- 46
2019-04-10 15:00:00 16.5 24 Norte 42 Norte 0 -- -- 47
2019-04-10 14:00:00 16.2 24 Norte 44 Norte 0 -- -- 52
2019-04-10 13:00:00 15.3 23 Norte 40 Norte 0 -- -- 55
2019-04-10 12:00:00 14.2 24 Norte 36 Norte 0 -- -- 63
2019-04-10 11:00:00 12.6 23 Noroeste 34 Noroeste 0 -- -- 72
2019-04-10 10:00:00 10 6 Noroeste 10 Noroeste 0 -- -- 89
2019-04-10 09:00:00 8 0 Calma 13 Noroeste 0 -- -- 96
2019-04-10 08:00:00 7.1 9 Noroeste 16 Noroeste 0 -- -- 96
2019-04-10 07:00:00 7.3 3 Norte 12 Norte 0 -- -- 95
2019-04-10 06:00:00 8 2 Norte 10 Noroeste 0 -- -- 94
2019-04-10 05:00:00 8.2 7 Noroeste 16 Noroeste 0 -- -- 93
2019-04-10 04:00:00 8.5 8 Noroeste 20 Noroeste 0 -- -- 92
2019-04-10 03:00:00 9.2 13 Noroeste 19 Noroeste 0 -- -- 90
2019-04-10 02:00:00 9.5 10 Noroeste 23 Noroeste 0 -- -- 87
2019-04-10 01:00:00 10.1 13 Noroeste 22 Noroeste 0 -- -- 84
2019-04-10 00:00:00 10.4 14 Noroeste 27 Noroeste 0 -- -- 81
2019-04-09 23:00:00 11.3 15 Noroeste 27 Noroeste 0 -- -- 77
2019-04-09 22:00:00 12.2 14 Noroeste 26 Noroeste 0 -- -- 71
2019-04-09 21:00:00 13.8 19 Noroeste 37 Noroeste 0 -- -- 69
2019-04-09 20:00:00 15.7 20 Noroeste 44 Norte 0 -- -- 59
2019-04-09 19:00:00 16.2 29 Noroeste 48 Oeste 0 -- -- 58
2019-04-09 18:00:00 17.3 28 Noroeste 42 Noroeste 0 -- -- 52
2019-04-09 17:00:00 16.2 21 Oeste 39 Noroeste 0 -- -- 67
2019-04-09 16:00:00 13.1 13 Noroeste 44 Noroeste 0.4 -- -- 89
2019-04-09 15:00:00 15.1 20 Oeste 60 Noroeste 0.6 -- -- 71
2019-04-09 14:00:00 15.7 19 Oeste 37 Oeste 0 -- -- 63
2019-04-09 13:00:00 14.8 18 Oeste 32 Oeste 0.2 -- -- 68
2019-04-09 12:00:00 12.5 21 Noroeste 42 Oeste 0.2 -- -- 80
2019-04-09 11:00:00 13.1 21 Oeste 32 Oeste 0 -- -- 79
2019-04-09 10:00:00 11.4 17 Oeste 26 Sudoeste 0 -- -- 88
2019-04-09 09:00:00 10.6 14 Sudoeste 21 Sudoeste 0 -- -- 97
2019-04-09 08:00:00 9.6 12 Sudoeste 19 Sudoeste 0 -- -- 96
2019-04-09 07:00:00 10.1 13 Sudoeste 22 Sudoeste 0 -- -- 93
2019-04-09 06:00:00 10.4 13 Oeste 24 Oeste 0 -- -- 91
2019-04-09 05:00:00 10.4 13 Oeste 23 Sudoeste 0 -- -- 92
2019-04-09 04:00:00 10.4 15 Sudoeste 24 Oeste 0 -- -- 91
2019-04-09 03:00:00 10.4 13 Sudoeste 23 Sudoeste 0 -- -- 88
2019-04-09 02:00:00 10.8 13 Oeste 20 Sudoeste 0 -- -- 84
2019-04-09 01:00:00 10.6 8 Oeste 19 Oeste 0 -- -- 82
2019-04-09 00:00:00 10.8 11 Oeste 20 Oeste 0 -- -- 80
2019-04-08 23:00:00 11.7 13 Oeste 23 Oeste 0 -- -- 74
2019-04-08 22:00:00 12.9 18 Oeste 32 Oeste 0 -- -- 64
2019-04-08 21:00:00 14 21 Oeste 36 Oeste 0 -- -- 61
2019-04-08 20:00:00 15.5 18 Noroeste 39 Noroeste 0 -- -- 55
2019-04-08 19:00:00 15.7 27 Noroeste 43 Noroeste 0 -- -- 62
2019-04-08 18:00:00 16.8 27 Oeste 38 Oeste 0 -- -- 52
2019-04-08 17:00:00 18.1 18 Oeste 29 Oeste 0 -- -- 45
2019-04-08 16:00:00 17.9 16 Oeste 31 Oeste 0 -- -- 42
2019-04-08 15:00:00 17.7 15 Noroeste 31 Oeste 0 -- -- 46
2019-04-08 14:00:00 16 16 Oeste 30 Oeste 0 -- -- 56
2019-04-08 13:00:00 15.6 17 Noroeste 25 Noroeste 0 -- -- 59
2019-04-08 12:00:00 14.7 9 Oeste 18 Oeste 0 -- -- 74
2019-04-08 11:00:00 13.5 8 Oeste 19 Oeste 0 -- -- 89
2019-04-08 10:00:00 12.6 13 Oeste 19 Oeste 0 -- -- 89
2019-04-08 09:00:00 12.4 5 Oeste 14 Oeste 0 -- -- 95
2019-04-08 08:00:00 12.4 10 Oeste 19 Oeste 0 -- -- 95
2019-04-08 07:00:00 12.5 9 Oeste 21 Oeste 0 -- -- 96
2019-04-08 06:00:00 12.7 16 Sudoeste 28 Sudoeste 0 -- -- 97
2019-04-08 05:00:00 12.6 18 Sudoeste 29 Sudoeste 0.8 -- -- 98
2019-04-08 04:00:00 12.6 18 Sudoeste 28 Sudoeste 0.8 -- -- 97
2019-04-08 03:00:00 12.7 15 Sudoeste 25 Sudoeste 0.4 -- -- 96
2019-04-08 02:00:00 13 17 Sudoeste 28 Sudoeste 0 -- -- 93
2019-04-08 01:00:00 13.1 18 Sudoeste 31 Oeste 0 -- -- 91
2019-04-08 00:00:00 13.1 14 Oeste 29 Oeste 0.4 -- -- 92
2019-04-07 23:00:00 13.9 13 Oeste 26 Oeste 0 -- -- 88
2019-04-07 22:00:00 14.1 9 Sudoeste 17 Oeste 0 -- -- 89
2019-04-07 21:00:00 14.2 10 Oeste 24 Oeste 0 -- -- 87
2019-04-07 20:00:00 14.4 5 Oeste 19 Oeste 0 -- -- 92
2019-04-07 19:00:00 13.9 14 Oeste 31 Sudoeste 0.6 -- -- 95
2019-04-07 18:00:00 14.1 18 Sudoeste 26 Sudoeste 0.6 -- -- 93
2019-04-07 17:00:00 13.9 14 Sudoeste 25 Sur 0 -- -- 90
2019-04-07 16:00:00 12.8 17 Sur 24 Sur 0 -- -- 90
2019-04-07 15:00:00 12 13 Sur 24 Sudoeste 0 -- -- 91
2019-04-07 14:00:00 11.6 16 Sudoeste 24 Sudoeste 0.2 -- -- 94
2019-04-07 13:00:00 11.6 11 Sudoeste 30 Sudoeste 0 -- -- 91
2019-04-07 12:00:00 12 19 Oeste 30 Oeste 0 -- -- 85
2019-04-07 11:00:00 12.2 12 Sudoeste 20 Sur 0 -- -- 84
2019-04-07 10:00:00 11.1 8 Sur 14 Sur 0 -- -- 92
2019-04-07 09:00:00 10.1 10 Sur 15 Sur 0 -- -- 93
2019-04-07 08:00:00 9.9 9 Oeste 27 Oeste 0.2 -- -- 92
2019-04-07 07:00:00 10.1 7 Noroeste 26 Oeste 0 -- -- 88
2019-04-07 06:00:00 10.2 16 Oeste 27 Oeste 0 -- -- 88
2019-04-07 05:00:00 10.5 19 Sudoeste 26 Sudoeste 0 -- -- 86
2019-04-07 04:00:00 10.1 14 Oeste 22 Oeste 0 -- -- 86
2019-04-07 03:00:00 10.2 15 Oeste 24 Oeste 0 -- -- 83
2019-04-07 02:00:00 10.3 15 Oeste 26 Sudoeste 0 -- -- 83
2019-04-07 01:00:00 10.1 13 Oeste 27 Sudoeste 0 -- -- 83
2019-04-07 00:00:00 10.3 18 Oeste 31 Oeste 0 -- -- 83
2019-04-06 23:00:00 10.7 14 Oeste 34 Noroeste 0 -- -- 79
2019-04-06 22:00:00 10.6 17 Oeste 27 Oeste 0 -- -- 78
2019-04-06 21:00:00 11.2 18 Oeste 47 Noroeste 0 -- -- 73
2019-04-06 20:00:00 13.2 30 Noroeste 47 Oeste 0 -- -- 62
2019-04-06 19:00:00 12.8 22 Noroeste 40 Noroeste 0 -- -- 65
2019-04-06 18:00:00 12.5 18 Noroeste 47 Noroeste 0.4 -- -- 69
2019-04-06 17:00:00 13.5 31 Noroeste 45 Norte 0 -- -- 61
2019-04-06 16:00:00 13.9 24 Noroeste 43 Oeste 0 -- -- 65
2019-04-06 15:00:00 12.8 34 Oeste 55 Oeste 0 -- -- 63
2019-04-06 14:00:00 14.4 22 Oeste 42 Oeste 0 -- -- 54
2019-04-06 13:00:00 12.9 24 Noroeste 37 Oeste 0 -- -- 63
2019-04-06 12:00:00 11.7 24 Oeste 37 Oeste 0 -- -- 73
2019-04-06 11:00:00 10.5 23 Oeste 33 Oeste 0 -- -- 79
2019-04-06 10:00:00 9.1 20 Oeste 33 Oeste 0 -- -- 87
2019-04-06 09:00:00 8.7 16 Sudoeste 31 Sudoeste 0 -- -- 92
2019-04-06 08:00:00 8.1 13 Sudoeste 26 Sudoeste 0 -- -- 92
2019-04-06 07:00:00 8.8 16 Sudoeste 27 Oeste 0 -- -- 89
2019-04-06 06:00:00 8.5 15 Oeste 30 Oeste 0 -- -- 87
2019-04-06 05:00:00 8.6 17 Oeste 30 Oeste 0 -- -- 86
2019-04-06 04:00:00 8.9 18 Oeste 30 Sudoeste 0 -- -- 87
2019-04-06 03:00:00 8.8 13 Oeste 28 Oeste 0 -- -- 86
2019-04-06 02:00:00 8.8 16 Oeste 28 Oeste 0 -- -- 85
2019-04-06 01:00:00 8.9 14 Oeste 28 Oeste 0 -- -- 85
2019-04-06 00:00:00 8.7 17 Oeste 25 Oeste 0 -- -- 84
2019-04-05 23:00:00 8.9 12 Oeste 30 Norte 0.4 -- -- 85
2019-04-05 22:00:00 9.9 11 Oeste 22 Oeste 0 -- -- 80
2019-04-05 21:00:00 9.8 10 Oeste 26 Oeste 0 -- -- 77
2019-04-05 20:00:00 10.2 17 Oeste 38 Noroeste 0 -- -- 74
2019-04-05 19:00:00 10.5 22 Oeste 60 Noroeste 0 -- -- 74
2019-04-05 18:00:00 12 30 Oeste 50 Oeste 0 -- -- 65
2019-04-05 17:00:00 10.9 22 Sudoeste 61 Oeste 0.4 -- -- 74
2019-04-05 16:00:00 13.4 17 Oeste 49 Oeste 0 -- -- 54
2019-04-05 15:00:00 13.3 20 Oeste 38 Oeste 0 -- -- 55
2019-04-05 14:00:00 11.8 18 Oeste 32 Oeste 0 -- -- 60
2019-04-05 13:00:00 10.7 15 Oeste 27 Oeste 0 -- -- 70
2019-04-05 12:00:00 8.3 11 Oeste 17 Oeste 0 -- -- 83
2019-04-05 11:00:00 6.9 6 Noroeste 17 Noroeste 0 -- -- 86
2019-04-05 10:00:00 5.5 8 Norte 36 Norte 0 -- -- 91
2019-04-05 09:00:00 6 28 Noroeste 53 Noroeste 2.4 -- -- 88
2019-04-05 08:00:00 9.4 17 Oeste 27 Oeste 0 -- -- 89
2019-04-05 07:00:00 9.6 14 Sudoeste 25 Sudoeste 0 -- -- 93
2019-04-05 06:00:00 9.5 12 Sudoeste 24 Sur 0 -- -- 93
2019-04-05 05:00:00 9.6 14 Sur 27 Sudoeste 0 -- -- 92
2019-04-05 04:00:00 9.4 15 Sudoeste 31 Oeste 0.4 -- -- 89
2019-04-05 03:00:00 9.3 18 Oeste 39 Oeste 4.8 -- -- 94
2019-04-05 02:00:00 9.4 20 Sur 28 Sur 0 -- -- 89
2019-04-05 01:00:00 9.6 18 Sudoeste 28 Sudoeste 0 -- -- 86
2019-04-05 00:00:00 9.9 15 Sudoeste 31 Oeste 0.2 -- -- 79
2019-04-04 23:00:00 10.8 23 Oeste 40 Oeste 0 -- -- 71
2019-04-04 22:00:00 11.9 25 Oeste 40 Oeste 0 -- -- 58
2019-04-04 21:00:00 13.1 26 Oeste 40 Oeste 0 -- -- 57
2019-04-04 20:00:00 14.7 26 Oeste 37 Oeste 0 -- -- 47
2019-04-04 19:00:00 16.6 20 Oeste 38 Oeste 0 -- -- 40
2019-04-04 18:00:00 17.4 16 Oeste 29 Oeste 0 -- -- 34
2019-04-04 17:00:00 17.3 14 Noroeste 25 Noroeste 0 -- -- 32
2019-04-04 16:00:00 16.6 14 Noroeste 23 Oeste 0 -- -- 29
2019-04-04 15:00:00 16.3 15 Oeste 24 Oeste 0 -- -- 30
2019-04-04 14:00:00 14.8 12 Norte 29 Norte 0 -- -- 32
2019-04-04 13:00:00 13.9 10 Norte 25 Norte 0 -- -- 41
2019-04-04 12:00:00 11.9 15 Nordeste 24 Nordeste 0 -- -- 46
2019-04-04 11:00:00 9.7 15 Norte 25 Norte 0 -- -- 53
2019-04-04 10:00:00 7.4 12 Norte 19 Norte 0 -- -- 68
2019-04-04 09:00:00 4.5 5 Norte 9 Norte 0 -- -- 86
2019-04-04 08:00:00 3.8 0 Calma 5 Norte 0 -- -- 87
2019-04-04 07:00:00 4 5 Norte 10 Norte 0 -- -- 90
2019-04-04 06:00:00 4 8 Norte 10 Norte 0 -- -- 90
2019-04-04 05:00:00 4.8 8 Norte 12 Norte 0 -- -- 87
2019-04-04 04:00:00 6.1 8 Norte 15 Norte 0 -- -- 82
2019-04-04 03:00:00 6.8 8 Norte 22 Norte 0 -- -- 79
2019-04-04 02:00:00 7.9 14 Norte 26 Norte 0 -- -- 72
2019-04-04 01:00:00 8.7 15 Norte 35 Norte 0 -- -- 65
2019-04-04 00:00:00 10 23 Norte 39 Norte 0 -- -- 64
2019-04-03 23:00:00 11.3 20 Norte 34 Norte 0 -- -- 58
2019-04-03 22:00:00 12.4 15 Norte 26 Norte 0 -- -- 52
2019-04-03 21:00:00 14 18 Noroeste 32 Noroeste 0 -- -- 48
2019-04-03 20:00:00 16.4 19 Norte 31 Noroeste 0 -- -- 41
2019-04-03 19:00:00 17.6 18 Noroeste 34 Noroeste 0 -- -- 38
2019-04-03 18:00:00 17.9 19 Noroeste 31 Noroeste 0 -- -- 40
2019-04-03 17:00:00 18.3 14 Noroeste 30 Noroeste 0 -- -- 42
2019-04-03 16:00:00 17.7 17 Noroeste 31 Noroeste 0 -- -- 43
2019-04-03 15:00:00 16.6 11 Noroeste 27 Noroeste 0 -- -- 49
2019-04-03 14:00:00 15.7 12 Noroeste 24 Noroeste 0 -- -- 52
2019-04-03 13:00:00 14.2 11 Norte 30 Norte 0 -- -- 57
2019-04-03 12:00:00 13.4 14 Norte 26 Norte 0 -- -- 58
2019-04-03 11:00:00 11.5 3 Norte 12 Nordeste 0 -- -- 77
2019-04-03 10:00:00 9.5 0 Calma 5 Sur 0 -- -- 90
2019-04-03 09:00:00 6.8 2 Norte 6 Norte 0 -- -- 96
2019-04-03 08:00:00 6.5 4 Norte 5 Nordeste 0 -- -- 95
2019-04-03 07:00:00 7.2 0 Calma 8 Norte 0 -- -- 95
2019-04-03 06:00:00 8.1 6 Noroeste 9 Noroeste 0 -- -- 93
2019-04-03 05:00:00 8.9 0 Calma 8 Nordeste 0 -- -- 93
2019-04-03 04:00:00 9.6 4 Nordeste 6 Nordeste 0 -- -- 90
2019-04-03 03:00:00 10.4 4 Nordeste 13 Norte 0 -- -- 90
2019-04-03 02:00:00 11.6 9 Norte 13 Norte 0 -- -- 86
2019-04-03 01:00:00 12.4 7 Norte 17 Norte 0 -- -- 82
2019-04-03 00:00:00 13.5 12 Norte 18 Norte 0 -- -- 76
2019-04-02 23:00:00 14.2 7 Norte 18 Noroeste 0 -- -- 72
2019-04-02 22:00:00 15.9 6 Noroeste 12 Noroeste 0 -- -- 63
2019-04-02 21:00:00 17.9 8 Oeste 16 Oeste 0 -- -- 58
2019-04-02 20:00:00 18.7 6 Sudoeste 11 Sudoeste 0 -- -- 56
2019-04-02 19:00:00 19.4 8 Oeste 15 Sudoeste 0 -- -- 52
2019-04-02 18:00:00 21 13 Sudoeste 17 Sudoeste 0 -- -- 50
2019-04-02 17:00:00 19.4 6 Oeste 17 Oeste 0 -- -- 55
2019-04-02 16:00:00 20.7 9 Oeste 17 Sudoeste 0 -- -- 50
2019-04-02 15:00:00 19 10 Oeste 15 Sudoeste 0 -- -- 58
2019-04-02 14:00:00 16.9 6 Oeste 11 Oeste 0 -- -- 71
2019-04-02 13:00:00 14.2 6 Oeste 10 Oeste 0 -- -- 87
2019-04-02 12:00:00 12.1 5 Oeste 9 Oeste 0 -- -- 99
2019-04-02 11:00:00 10.8 0 Calma 8 Sur 0 -- -- 100
2019-04-02 10:00:00 9.9 3 Sur 8 Sur 0 -- -- 99
2019-04-02 09:00:00 9.8 4 Sur 9 Sur 0 -- -- 99
2019-04-02 08:00:00 9.6 4 Sudoeste 10 Sudoeste 0 -- -- 99
2019-04-02 07:00:00 9.3 0 Calma 7 Sudeste 0 -- -- 99
2019-04-02 06:00:00 9.7 3 Sudeste 8 Sudeste 0 -- -- 99
2019-04-02 05:00:00 9.7 5 Sudeste 9 Este 0 -- -- 98
2019-04-02 04:00:00 9.8 5 Este 9 Nordeste 0 -- -- 97
2019-04-02 03:00:00 9.9 4 Nordeste 5 Nordeste 0 -- -- 96
2019-04-02 02:00:00 10.8 2 Este 7 Sudoeste 0 -- -- 95
2019-04-02 01:00:00 11.6 5 Sur 7 Sur 0 -- -- 95
2019-04-02 00:00:00 11.8 3 Sur 7 Sur 0 -- -- 92
2019-04-01 23:00:00 12.4 0 Calma 6 Sudeste 0.2 -- -- 90
2019-04-01 22:00:00 13.1 0 Calma 6 Sur 0 -- -- 90
2019-04-01 21:00:00 13.5 3 Este 16 Sur 0 -- -- 86
2019-04-01 20:00:00 14.3 12 Sur 22 Sur 0.2 -- -- 83
2019-04-01 19:00:00 14.8 9 Este 28 Sudeste 0.6 -- -- 79
2019-04-01 18:00:00 16.5 16 Este 36 Nordeste 0.2 -- -- 67
2019-04-01 17:00:00 20.4 12 Noroeste 24 Oeste 0 -- -- 51
2019-04-01 16:00:00 19.9 8 Sudoeste 21 Noroeste 0 -- -- 53
2019-04-01 15:00:00 19.7 14 Oeste 23 Noroeste 0 -- -- 58
2019-04-01 14:00:00 19.1 7 Oeste 13 Sudeste 0 -- -- 64
2019-04-01 13:00:00 18 6 Sur 12 Sudoeste 0 -- -- 66
2019-04-01 12:00:00 16.1 6 Oeste 12 Oeste 0 -- -- 78
2019-04-01 11:00:00 15 6 Sudoeste 10 Sur 0 -- -- 82
2019-04-01 10:00:00 13.8 4 Sudeste 6 Sudeste 0 -- -- 90
2019-04-01 09:00:00 12.2 4 Sudeste 5 Sudeste 0 -- -- 97
2019-04-01 08:00:00 11.7 3 Sudoeste 6 Sudoeste 0 -- -- 97
2019-04-01 07:00:00 11.9 0 Calma 7 Este 0.2 -- -- 95
2019-04-01 06:00:00 11.8 5 Nordeste 9 Nordeste 0.8 -- -- 96
2019-04-01 05:00:00 12.1 0 Calma 16 Nordeste 0 -- -- 93
2019-04-01 04:00:00 11.9 11 Nordeste 17 Nordeste 0 -- -- 94
2019-04-01 03:00:00 12.1 13 Este 18 Este 0.2 -- -- 95
2019-04-01 02:00:00 12.2 9 Este 14 Este 0.2 -- -- 94
2019-04-01 01:00:00 12.4 4 Nordeste 9 Norte 0 -- -- 93
2019-04-01 00:00:00 12.7 6 Oeste 15 Sudoeste 0 -- -- 90
2019-03-31 23:00:00 12.4 6 Sudeste 19 Este 0 -- -- 91
2019-03-31 22:00:00 12.6 9 Este 18 Nordeste 0 -- -- 92
2019-03-31 21:00:00 12.8 13 Nordeste 22 Norte 1.2 -- -- 92
2019-03-31 20:00:00 14.9 12 Norte 26 Sudeste 0 -- -- 79
2019-03-31 19:00:00 18.4 23 Sudoeste 41 Sudoeste 0 -- -- 56
2019-03-31 18:00:00 20.7 18 Sudoeste 27 Sudoeste 0 -- -- 56
2019-03-31 17:00:00 21.7 8 Oeste 14 Sudoeste 0 -- -- 42
2019-03-31 16:00:00 21.2 8 Oeste 13 Sudoeste 0 -- -- 43
2019-03-31 15:00:00 20.1 7 Oeste 16 Sudoeste 0 -- -- 49
2019-03-31 14:00:00 19 9 Sudoeste 18 Sudoeste 0 -- -- 57
2019-03-31 13:00:00 17.7 10 Sudoeste 18 Sudoeste 0 -- -- 67
2019-03-31 12:00:00 16.7 8 Sudoeste 15 Oeste 0 -- -- 72
2019-03-31 11:00:00 14.1 2 Sudeste 6 Oeste 0 -- -- 85
2019-03-31 10:00:00 11.5 2 Oeste 12 Este 0 -- -- 92
2019-03-31 09:00:00 9.9 12 Este 15 Este 0 -- -- 96
2019-03-31 08:00:00 10.4 3 Sur 6 Sudeste 0 -- -- 92
2019-03-31 07:00:00 10.6 3 Sur 6 Sudoeste 0 -- -- 93
2019-03-31 06:00:00 11.3 5 Sur 11 Sur 0 -- -- 88
2019-03-31 05:00:00 10.8 9 Sudeste 13 Sudeste 0 -- -- 90
2019-03-31 03:00:00 11.4 13 Este 17 Este 0 -- -- 85
2019-03-31 01:00:00 12.8 4 Noroeste 8 Oeste 0 -- -- 83
2019-03-31 00:00:00 14.1 2 Sudeste 11 Sudeste 0 -- -- 76
2019-03-30 23:00:00 14.7 10 Sudeste 25 Este 0 -- -- 73
2019-03-30 22:00:00 14.9 13 Sudeste 32 Sudeste 0 -- -- 73
2019-03-30 21:00:00 15.9 13 Sudeste 32 Sudeste 0 -- -- 63
2019-03-30 20:00:00 18.3 21 Sudeste 36 Sudeste 0 -- -- 54
2019-03-30 19:00:00 21.7 16 Nordeste 27 Nordeste 0 -- -- 37
2019-03-30 18:00:00 22.3 15 Nordeste 24 Nordeste 0 -- -- 36
2019-03-30 17:00:00 22.5 12 Este 30 Este 0 -- -- 37
2019-03-30 16:00:00 21.6 12 Este 27 Nordeste 0 -- -- 38
2019-03-30 15:00:00 22.1 13 Este 34 Nordeste 0 -- -- 40
2019-03-30 14:00:00 21.4 16 Nordeste 36 Nordeste 0 -- -- 42
2019-03-30 13:00:00 20.5 13 Nordeste 27 Nordeste 0 -- -- 46
2019-03-30 12:00:00 18.4 10 Nordeste 23 Norte 0 -- -- 57
2019-03-30 11:00:00 16.5 11 Nordeste 19 Nordeste 0 -- -- 64
2019-03-30 10:00:00 13 5 Noroeste 11 Norte 0 -- -- 80
2019-03-30 09:00:00 12.6 0 Calma 8 Norte 0 -- -- 86
2019-03-30 08:00:00 11.2 3 Norte 12 Este 0 -- -- 88
2019-03-30 07:00:00 11 3 Este 6 Este 0 -- -- 87
2019-03-30 06:00:00 11.5 4 Sudeste 8 Sudeste 0 -- -- 85
2019-03-30 05:00:00 11.9 5 Sur 10 Sur 0 -- -- 85
2019-03-30 04:00:00 12.4 5 Sur 11 Sudeste 0 -- -- 84
2019-03-30 03:00:00 12.5 8 Sudeste 11 Sur 0 -- -- 82
2019-03-30 02:00:00 12.7 7 Sur 13 Sudeste 0 -- -- 80
2019-03-30 01:00:00 12.6 9 Sudeste 14 Sur 0 -- -- 78
2019-03-30 00:00:00 12.7 7 Sur 12 Sudoeste 0 -- -- 71
2019-03-29 23:00:00 12.2 8 Sur 14 Sur 0 -- -- 62
2019-03-29 22:00:00 14.6 3 Noroeste 10 Norte 0 -- -- 40
2019-03-29 21:00:00 15.7 9 Norte 12 Norte 0 -- -- 37
2019-03-29 20:00:00 17.4 8 Norte 10 Norte 0 -- -- 37
2019-03-29 19:00:00 20.6 6 Oeste 15 Sudoeste 0 -- -- 30
2019-03-29 18:00:00 21.6 10 Sudoeste 16 Sudoeste 0 -- -- 29
2019-03-29 17:00:00 21.8 12 Oeste 19 Oeste 0 -- -- 29
2019-03-29 16:00:00 21.3 9 Noroeste 24 Oeste 0 -- -- 31
2019-03-29 15:00:00 21.4 13 Sudoeste 18 Sur 0 -- -- 27
2019-03-29 14:00:00 20 9 Noroeste 17 Oeste 0 -- -- 32
2019-03-29 13:00:00 18.7 12 Oeste 21 Oeste 0 -- -- 37
2019-03-29 12:00:00 16.3 13 Noroeste 21 Norte 0 -- -- 44
2019-03-29 11:00:00 15.3 9 Nordeste 15 Norte 0 -- -- 44
2019-03-29 10:00:00 12.3 4 Nordeste 11 Norte 0 -- -- 59
2019-03-29 09:00:00 8.3 3 Sudoeste 15 Nordeste 0 -- -- 69
2019-03-29 08:00:00 5.9 2 Oeste 18 Nordeste 0 -- -- 73
2019-03-29 07:00:00 5 5 Nordeste 10 Nordeste 0 -- -- 84
2019-03-29 06:00:00 5.9 0 Calma 9 Norte 0 -- -- 81
2019-03-29 05:00:00 6.6 0 Calma 5 Oeste 0 -- -- 78
2019-03-29 04:00:00 7.4 0 Calma 5 Este 0 -- -- 63
2019-03-29 03:00:00 6.8 4 Nordeste 12 Este 0 -- -- 66
2019-03-29 02:00:00 8.8 4 Nordeste 7 Este 0 -- -- 59
2019-03-29 01:00:00 10.7 8 Sudeste 9 Sudeste 0 -- -- 56
2019-03-29 00:00:00 10.9 3 Sudoeste 9 Oeste 0 -- -- 62
2019-03-28 23:00:00 12.8 4 Este 10 Este 0 -- -- 43
2019-03-28 22:00:00 14.6 8 Este 13 Sudeste 0 -- -- 38
2019-03-28 21:00:00 16.1 10 Sudeste 14 Sudeste 0 -- -- 33
2019-03-28 20:00:00 18.3 9 Sudeste 24 Sudeste 0 -- -- 29
2019-03-28 19:00:00 20.7 15 Sudeste 30 Sudeste 0 -- -- 25
2019-03-28 18:00:00 22 11 Sudeste 33 Este 0 -- -- 16
2019-03-28 17:00:00 22.4 18 Sudeste 32 Sudeste 0 -- -- 21
2019-03-28 16:00:00 22.3 15 Sudeste 36 Este 0 -- -- 24
2019-03-28 15:00:00 22 12 Este 36 Este 0 -- -- 27
2019-03-28 14:00:00 20.8 16 Este 36 Este 0 -- -- 31
2019-03-28 13:00:00 19.7 21 Este 31 Este 0 -- -- 36
2019-03-28 12:00:00 18.8 10 Este 24 Este 0 -- -- 44
2019-03-28 11:00:00 16.9 13 Este 26 Nordeste 0 -- -- 49
2019-03-28 10:00:00 13.5 10 Nordeste 26 Nordeste 0 -- -- 65
2019-03-28 09:00:00 9.6 6 Este 13 Este 0 -- -- 78
2019-03-28 08:00:00 5.4 2 Oeste 3 Noroeste 0 -- -- 92
2019-03-28 07:00:00 5.6 0 Calma 4 Noroeste 0 -- -- 90
2019-03-28 06:00:00 5.9 3 Norte 5 Sudeste 0 -- -- 88
2019-03-28 05:00:00 6.5 4 Nordeste 8 Este 0 -- -- 85
2019-03-28 04:00:00 7.8 6 Este 8 Este 0 -- -- 80
2019-03-28 03:00:00 9.4 6 Sudeste 8 Sudeste 0 -- -- 77
2019-03-28 02:00:00 10.6 5 Sur 8 Sur 0 -- -- 73
2019-03-28 01:00:00 11.8 6 Sur 12 Sudoeste 0 -- -- 68
2019-03-28 00:00:00 12.3 9 Sur 13 Sur 0 -- -- 64
2019-03-27 23:00:00 12 9 Sur 15 Sur 0 -- -- 47
2019-03-27 22:00:00 15.2 4 Sudeste 19 Nordeste 0 -- -- 34
2019-03-27 21:00:00 16.4 13 Nordeste 21 Nordeste 0 -- -- 32
2019-03-27 20:00:00 18.1 11 Nordeste 26 Nordeste 0 -- -- 29
2019-03-27 19:00:00 20.6 17 Nordeste 33 Nordeste 0 -- -- 25
2019-03-27 18:00:00 21.8 18 Este 39 Este 0 -- -- 21
2019-03-27 17:00:00 22 24 Este 40 Este 0 -- -- 20
2019-03-27 16:00:00 21.6 26 Este 45 Nordeste 0 -- -- 23
2019-03-27 15:00:00 21.3 21 Nordeste 42 Este 0 -- -- 25
2019-03-27 14:00:00 20.5 23 Este 38 Nordeste 0 -- -- 28
2019-03-27 13:00:00 19.8 17 Este 39 Nordeste 0 -- -- 32
2019-03-27 12:00:00 18 18 Este 33 Este 0 -- -- 42
2019-03-27 11:00:00 16.7 19 Nordeste 30 Nordeste 0 -- -- 48
2019-03-27 10:00:00 14.9 18 Nordeste 32 Nordeste 0 -- -- 56
2019-03-27 09:00:00 12.8 15 Nordeste 24 Este 0 -- -- 67
2019-03-27 08:00:00 8.8 4 Este 10 Nordeste 0 -- -- 83
2019-03-27 07:00:00 7.7 3 Nordeste 7 Nordeste 0 -- -- 88
2019-03-27 06:00:00 8.7 0 Calma 10 Norte 0 -- -- 86
2019-03-27 05:00:00 10 2 Oeste 19 Este 0 -- -- 84
2019-03-27 04:00:00 9.6 4 Sudeste 8 Este 0 -- -- 84
2019-03-27 03:00:00 10.5 3 Sudeste 9 Este 0 -- -- 81
2019-03-27 02:00:00 11.7 8 Este 11 Este 0 -- -- 78
2019-03-27 01:00:00 12.7 2 Sudeste 6 Sudoeste 0 -- -- 75
2019-03-27 00:00:00 13.1 0 Calma 15 Este 0 -- -- 72